Time;durP1;ratioP1;P1;durP2;ratioP2;P2;SDS_P1;SDS_P2;PMS_P1;PMS_P2;Temp;Humidity;BMP_temperature;BMP_pressure;BME280_temperature;BME280_humidity;BME280_pressure;Samples;Min_cycle;Max_cycle;Signal;HPM_P1;HPM_P2
2023/06/13 00:01:04;;;;;;;5.05;4.03;;;21.20;39.40;;;;;;4967163;28;20093;-68
2023/06/13 00:03:30;;;;;;;6.90;3.53;;;21.20;39.50;;;;;;4966562;28;20121;-68
2023/06/13 00:06:01;;;;;;;6.63;3.58;;;21.20;39.50;;;;;;4968768;28;20046;-68
2023/06/13 00:08:31;;;;;;;4.75;4.07;;;21.10;39.50;;;;;;4973025;28;20372;-68
2023/06/13 00:11:00;;;;;;;4.63;3.78;;;21.10;39.60;;;;;;4975907;28;20042;-68
2023/06/13 00:13:25;;;;;;;4.53;3.70;;;21.10;39.60;;;;;;4977122;28;20469;-68
2023/06/13 00:15:56;;;;;;;5.85;3.95;;;21.00;39.60;;;;;;4995284;28;20074;-68
2023/06/13 00:18:23;;;;;;;5.82;3.90;;;21.00;39.70;;;;;;4995468;28;20117;-68
2023/06/13 00:20:50;;;;;;;5.18;4.40;;;21.00;39.80;;;;;;4984097;28;20039;-68
2023/06/13 00:23:16;;;;;;;4.40;3.95;;;20.90;39.60;;;;;;4975787;28;20039;-68
2023/06/13 00:25:42;;;;;;;4.30;3.42;;;20.90;39.70;;;;;;4978348;28;20442;-68
2023/06/13 00:28:08;;;;;;;5.35;4.00;;;20.90;39.70;;;;;;4976854;28;20113;-68
2023/06/13 00:30:34;;;;;;;4.07;3.50;;;20.90;39.70;;;;;;4976782;28;20042;-68
2023/06/13 00:32:59;;;;;;;5.25;3.70;;;20.80;39.70;;;;;;4977009;28;20398;-68
2023/06/13 00:35:25;;;;;;;4.93;4.05;;;20.80;39.70;;;;;;4991405;28;20558;-68
2023/06/13 00:37:54;;;;;;;5.93;4.20;;;20.70;39.20;;;;;;5011437;28;20132;-68
2023/06/13 00:40:21;;;;;;;4.47;4.03;;;20.70;39.30;;;;;;5034201;28;20469;-68
2023/06/13 00:42:47;;;;;;;4.88;3.17;;;20.70;39.30;;;;;;5033831;28;20162;-68
2023/06/13 00:45:23;;;;;;;5.82;4.03;;;20.60;39.20;;;;;;5019535;28;20042;-68
2023/06/13 00:47:55;;;;;;;5.03;3.97;;;20.60;39.00;;;;;;5033103;28;20034;-68
2023/06/13 00:50:27;;;;;;;5.75;4.10;;;20.50;39.00;;;;;;5034028;28;20045;-68
2023/06/13 00:52:57;;;;;;;7.20;3.80;;;20.50;38.70;;;;;;5047776;28;20080;-68
2023/06/13 00:55:25;;;;;;;6.47;4.50;;;20.50;38.50;;;;;;5032321;28;20052;-68
2023/06/13 00:57:55;;;;;;;7.85;4.15;;;20.40;38.20;;;;;;5050532;28;20049;-67
2023/06/13 01:00:26;;;;;;;5.97;4.68;;;20.30;38.50;;;;;;5033668;28;20056;-68
2023/06/13 01:02:58;;;;;;;7.13;5.13;;;20.30;38.50;;;;;;5017749;28;20117;-68
2023/06/13 01:05:28;;;;;;;9.07;4.22;;;20.20;38.00;;;;;;5023700;28;20088;-68
2023/06/13 01:08:04;;;;;;;5.80;4.78;;;20.20;38.30;;;;;;5032149;28;20539;-68
2023/06/13 01:10:32;;;;;;;8.80;5.20;;;20.10;38.50;;;;;;5031603;28;20048;-68
2023/06/13 01:13:01;;;;;;;5.78;4.45;;;20.10;38.20;;;;;;5017048;28;20550;-68
2023/06/13 01:15:33;;;;;;;8.13;4.80;;;20.00;38.50;;;;;;5018090;28;20045;-68
2023/06/13 01:18:01;;;;;;;5.90;4.75;;;20.00;38.80;;;;;;5017453;28;20119;-68
2023/06/13 01:20:32;;;;;;;6.03;5.05;;;19.90;38.90;;;;;;5032158;28;20053;-68
2023/06/13 01:23:30;;;;;;;5.22;4.63;;;19.90;38.40;;;;;;5050281;28;20366;-68
2023/06/13 01:26:14;;;;;;;6.43;4.50;;;19.80;38.70;;;;;;5014198;28;20049;-68
2023/06/13 01:28:45;;;;;;;6.63;5.30;;;19.80;39.00;;;;;;5032106;28;20481;-67
2023/06/13 01:31:13;;;;;;;6.75;4.65;;;19.70;38.60;;;;;;5026587;28;20084;-68
2023/06/13 01:33:40;;;;;;;5.65;4.28;;;19.70;39.10;;;;;;5017696;28;20046;-69
2023/06/13 01:36:07;;;;;;;6.63;4.90;;;19.70;39.20;;;;;;4995077;28;20041;-66
2023/06/13 01:38:33;;;;;;;5.45;4.45;;;19.60;39.30;;;;;;4993535;28;20061;-66
2023/06/13 01:40:59;;;;;;;7.68;5.47;;;19.60;39.30;;;;;;4994985;28;20039;-66
2023/06/13 01:43:24;;;;;;;9.00;5.10;;;19.50;38.90;;;;;;5008411;28;20064;-67
2023/06/13 01:45:58;;;;;;;9.77;5.65;;;19.50;38.70;;;;;;5033413;28;20033;-67
2023/06/13 01:48:39;;;;;;;8.98;5.70;;;19.40;38.40;;;;;;5034135;28;20052;-67
2023/06/13 01:51:22;;;;;;;8.95;6.20;;;19.30;38.50;;;;;;5014064;28;20100;-67
2023/06/13 01:54:04;;;;;;;7.22;5.15;;;19.30;38.50;;;;;;5015655;28;20041;-67
2023/06/13 01:56:32;;;;;;;6.25;5.50;;;19.20;38.60;;;;;;5032308;28;20323;-67
2023/06/13 01:59:04;;;;;;;11.93;6.22;;;19.10;38.70;;;;;;5032771;28;20147;-68
2023/06/13 02:01:32;;;;;;;7.38;5.40;;;19.10;38.70;;;;;;5033845;28;20128;-67
2023/06/13 02:03:59;;;;;;;11.00;6.43;;;19.00;38.60;;;;;;5027622;28;20095;-68
2023/06/13 02:06:26;;;;;;;6.90;5.97;;;18.90;38.60;;;;;;5035366;28;20067;-68
2023/06/13 02:08:52;;;;;;;8.70;5.72;;;18.80;38.80;;;;;;5015213;28;20107;-68
2023/06/13 02:11:18;;;;;;;11.35;6.78;;;18.70;39.10;;;;;;5014122;28;20042;-68
2023/06/13 02:13:44;;;;;;;8.10;5.97;;;18.70;39.30;;;;;;5014287;28;20050;-68
2023/06/13 02:16:10;;;;;;;8.93;5.88;;;18.60;39.40;;;;;;5048767;28;20037;-67
2023/06/13 02:18:37;;;;;;;10.02;6.38;;;18.60;39.50;;;;;;5023431;28;20046;-68
2023/06/13 02:21:03;;;;;;;9.10;5.70;;;18.50;39.60;;;;;;5012898;28;20120;-67
2023/06/13 02:23:29;;;;;;;10.35;6.63;;;18.40;39.60;;;;;;5012477;28;20042;-67
2023/06/13 02:25:55;;;;;;;7.07;5.68;;;18.30;39.70;;;;;;5031692;28;20167;-68
2023/06/13 02:28:21;;;;;;;6.57;5.43;;;18.30;40.00;;;;;;5031758;28;20044;-68
2023/06/13 02:30:48;;;;;;;8.45;5.60;;;18.30;40.60;;;;;;5032375;28;20037;-68
2023/06/13 02:33:14;;;;;;;7.35;5.90;;;18.20;40.30;;;;;;5015957;28;20046;-67
2023/06/13 02:35:41;;;;;;;6.88;5.15;;;18.20;40.60;;;;;;5013854;28;20048;-68
2023/06/13 02:38:06;;;;;;;6.10;4.82;;;18.20;40.80;;;;;;5012101;28;20054;-67
2023/06/13 02:40:35;;;;;;;7.07;5.40;;;18.20;41.10;;;;;;5012145;28;20104;-68
2023/06/13 02:43:01;;;;;;;6.18;5.40;;;18.20;41.00;;;;;;5012133;28;20050;-68
2023/06/13 02:45:27;;;;;;;8.43;5.07;;;18.20;41.10;;;;;;5027436;28;20100;-67
2023/06/13 02:47:54;;;;;;;6.15;4.78;;;18.20;41.30;;;;;;5017848;28;20080;-67
2023/06/13 02:50:21;;;;;;;6.15;4.60;;;18.20;41.50;;;;;;5013215;28;20045;-66
2023/06/13 02:52:47;;;;;;;6.47;5.15;;;18.30;41.70;;;;;;5012037;28;20065;-67
2023/06/13 02:55:13;;;;;;;5.95;4.97;;;18.30;41.70;;;;;;5026286;28;20045;-66
2023/06/13 02:57:39;;;;;;;6.97;4.60;;;18.30;41.70;;;;;;5031693;28;20042;-67
2023/06/13 03:00:12;;;;;;;6.35;5.22;;;18.30;42.00;;;;;;5029549;28;20041;-67
2023/06/13 03:02:38;;;;;;;7.57;5.80;;;18.30;42.00;;;;;;5012306;28;20045;-67
2023/06/13 03:05:15;;;;;;;6.05;4.82;;;18.40;41.90;;;;;;5023533;28;20217;-67
2023/06/13 03:07:46;;;;;;;5.93;5.13;;;18.40;42.00;;;;;;5031665;28;20098;-67
2023/06/13 03:10:14;;;;;;;7.35;4.60;;;18.40;42.00;;;;;;5030182;28;20049;-67
2023/06/13 03:12:40;;;;;;;8.77;5.20;;;18.40;42.00;;;;;;5017975;28;20180;-67
2023/06/13 03:15:11;;;;;;;7.45;5.20;;;18.40;41.90;;;;;;5018870;28;20060;-67
2023/06/13 03:17:36;;;;;;;7.60;5.25;;;18.50;41.80;;;;;;5011804;28;20046;-67
2023/06/13 03:20:05;;;;;;;8.45;5.40;;;18.50;41.60;;;;;;5013060;28;20048;-67
2023/06/13 03:22:31;;;;;;;6.63;4.97;;;18.50;41.70;;;;;;5012047;28;20420;-67
2023/06/13 03:24:57;;;;;;;7.93;5.10;;;18.50;41.80;;;;;;5022872;28;20112;-67
2023/06/13 03:27:23;;;;;;;6.68;4.97;;;18.50;41.90;;;;;;5032476;28;20116;-67
2023/06/13 03:29:48;;;;;;;6.38;4.45;;;18.50;42.10;;;;;;5022151;28;20049;-67
2023/06/13 03:32:14;;;;;;;7.07;5.50;;;18.50;42.20;;;;;;5011666;28;20054;-67
2023/06/13 03:34:40;;;;;;;7.47;5.53;;;18.50;42.00;;;;;;5019003;28;20124;-67
2023/06/13 03:37:07;;;;;;;7.45;5.20;;;18.50;41.80;;;;;;5032603;28;20045;-67
2023/06/13 03:39:33;;;;;;;6.43;5.00;;;18.50;41.90;;;;;;5014692;28;20516;-67
2023/06/13 03:42:00;;;;;;;7.78;4.90;;;18.50;42.00;;;;;;5015983;28;20120;-67
2023/06/13 03:44:27;;;;;;;9.60;4.72;;;18.50;42.10;;;;;;5019207;28;20125;-67
2023/06/13 03:46:54;;;;;;;7.25;4.93;;;18.50;42.00;;;;;;5017851;28;20049;-67
2023/06/13 03:49:20;;;;;;;6.07;4.65;;;18.50;42.20;;;;;;5016571;28;20108;-67
2023/06/13 03:51:46;;;;;;;5.00;4.25;;;18.50;42.20;;;;;;5016309;28;20053;-67
2023/06/13 03:54:11;;;;;;;7.70;5.68;;;18.50;42.30;;;;;;5019587;28;20037;-67
2023/06/13 03:56:37;;;;;;;6.55;5.28;;;18.50;42.20;;;;;;5036278;28;20080;-67
2023/06/13 03:59:03;;;;;;;6.07;4.60;;;18.50;42.20;;;;;;5034991;28;20053;-67
2023/06/13 04:01:28;;;;;;;5.18;4.50;;;18.50;42.20;;;;;;5020147;28;20508;-67
2023/06/13 04:03:55;;;;;;;6.22;5.50;;;18.50;42.30;;;;;;5016927;28;20049;-67
2023/06/13 04:06:21;;;;;;;9.25;4.78;;;18.50;42.30;;;;;;5034971;28;20045;-70
2023/06/13 04:08:46;;;;;;;7.80;5.72;;;18.40;42.40;;;;;;5036220;28;20037;-71
2023/06/13 04:11:12;;;;;;;7.00;4.60;;;18.40;42.50;;;;;;5025969;28;20042;-70
2023/06/13 04:13:38;;;;;;;7.40;5.45;;;18.40;42.40;;;;;;4999027;28;20091;-70
2023/06/13 04:16:04;;;;;;;6.00;4.10;;;18.40;42.50;;;;;;5033814;28;20042;-71
2023/06/13 04:18:30;;;;;;;5.85;4.78;;;18.40;42.70;;;;;;5036098;28;20045;-71
2023/06/13 04:20:57;;;;;;;6.88;4.40;;;18.40;42.70;;;;;;5034660;28;20428;-71
2023/06/13 04:23:25;;;;;;;5.85;4.82;;;18.40;42.80;;;;;;5051467;28;20438;-70
2023/06/13 04:25:52;;;;;;;8.43;5.20;;;18.30;42.90;;;;;;5018380;28;20042;-71
2023/06/13 04:28:18;;;;;;;7.20;5.63;;;18.30;42.90;;;;;;5029516;28;20045;-71
2023/06/13 04:30:47;;;;;;;5.80;5.00;;;18.30;42.90;;;;;;5024794;28;20535;-70
2023/06/13 04:33:17;;;;;;;6.18;4.65;;;18.30;43.00;;;;;;5020411;28;20112;-71
2023/06/13 04:35:48;;;;;;;7.70;4.90;;;18.30;43.10;;;;;;5011673;28;20096;-70
2023/06/13 04:38:21;;;;;;;8.98;5.32;;;18.30;43.40;;;;;;4994837;28;20058;-71
2023/06/13 04:40:50;;;;;;;7.32;5.32;;;18.20;43.40;;;;;;5003181;28;20050;-70
2023/06/13 04:43:16;;;;;;;6.18;5.13;;;18.20;43.60;;;;;;5015840;28;20038;-72
2023/06/13 04:45:46;;;;;;;9.23;5.80;;;18.10;43.50;;;;;;5027731;28;20120;-71
2023/06/13 04:48:12;;;;;;;6.88;4.95;;;18.20;43.60;;;;;;5034305;28;20394;-71
2023/06/13 04:50:41;;;;;;;9.15;5.35;;;18.10;43.60;;;;;;5034434;28;20099;-71
2023/06/13 04:53:11;;;;;;;9.30;5.18;;;18.10;43.70;;;;;;5048898;28;20045;-71
2023/06/13 04:55:40;;;;;;;9.20;5.57;;;18.00;43.90;;;;;;5019923;28;20544;-71
2023/06/13 04:58:06;;;;;;;8.30;4.72;;;18.00;44.00;;;;;;5015546;28;20121;-71
2023/06/13 05:00:32;;;;;;;6.90;4.55;;;18.00;44.10;;;;;;4998399;28;20397;-71
2023/06/13 05:03:01;;;;;;;7.43;5.03;;;18.00;44.30;;;;;;5015556;28;20042;-71
2023/06/13 05:05:26;;;;;;;8.80;5.45;;;18.00;44.20;;;;;;5011064;28;20042;-71
2023/06/13 05:07:57;;;;;;;7.32;4.85;;;18.00;44.10;;;;;;5026160;28;20503;-71
2023/06/13 05:10:27;;;;;;;8.15;4.57;;;18.00;44.20;;;;;;5014225;28;20409;-71
2023/06/13 05:12:53;;;;;;;6.93;4.80;;;18.10;44.30;;;;;;5013945;28;20129;-71
2023/06/13 05:15:23;;;;;;;5.78;4.85;;;18.10;44.40;;;;;;5024262;28;20107;-68
2023/06/13 05:17:52;;;;;;;7.28;4.70;;;18.30;44.60;;;;;;5002860;28;20053;-67
2023/06/13 05:20:22;;;;;;;6.90;5.30;;;18.40;44.60;;;;;;5013470;28;20045;-65
2023/06/13 05:22:50;;;;;;;6.20;4.70;;;18.70;44.60;;;;;;5014753;28;20042;-66
2023/06/13 05:25:16;;;;;;;7.57;4.65;;;19.00;44.00;;;;;;5024310;28;20041;-65
2023/06/13 05:27:41;;;;;;;11.25;4.80;;;19.30;43.60;;;;;;5023207;28;20046;-67
2023/06/13 05:30:11;;;;;;;6.85;4.72;;;19.50;43.40;;;;;;5013608;28;20540;-66
2023/06/13 05:32:37;;;;;;;8.30;4.93;;;19.80;42.80;;;;;;5013278;28;20409;-66
2023/06/13 05:35:03;;;;;;;6.50;4.38;;;20.10;42.80;;;;;;5021230;28;20053;-66
2023/06/13 05:37:29;;;;;;;6.65;4.55;;;20.40;42.60;;;;;;5026969;28;20604;-66
2023/06/13 05:39:55;;;;;;;8.13;4.10;;;20.60;41.80;;;;;;5041818;28;20049;-66
2023/06/13 05:42:21;;;;;;;5.43;4.28;;;20.90;41.60;;;;;;5013125;28;20116;-66
2023/06/13 05:44:47;;;;;;;6.43;3.97;;;21.20;41.40;;;;;;5014263;28;20065;-66
2023/06/13 05:47:13;;;;;;;5.90;4.72;;;21.60;40.80;;;;;;5014466;28;20485;-66
2023/06/13 05:49:39;;;;;;;5.35;4.20;;;21.90;40.20;;;;;;5014368;28;20121;-66
2023/06/13 05:52:05;;;;;;;6.00;4.03;;;22.10;39.50;;;;;;5013139;28;20520;-66
2023/06/13 05:54:31;;;;;;;7.25;4.15;;;22.40;39.20;;;;;;5012957;28;20076;-66
2023/06/13 05:56:57;;;;;;;7.55;4.63;;;22.60;38.90;;;;;;5013637;28;20076;-66
2023/06/13 05:59:23;;;;;;;4.97;4.20;;;22.80;38.40;;;;;;5012764;28;20065;-66
2023/06/13 06:01:49;;;;;;;6.00;4.00;;;22.90;38.10;;;;;;5012657;28;20053;-67
2023/06/13 06:04:15;;;;;;;6.15;4.10;;;23.00;38.00;;;;;;4996473;28;20414;-67
2023/06/13 06:06:40;;;;;;;6.03;4.10;;;23.00;37.70;;;;;;5012376;28;20153;-66
2023/06/13 06:09:06;;;;;;;5.28;3.63;;;22.90;37.00;;;;;;5012706;28;20048;-66
2023/06/13 06:11:33;;;;;;;7.65;4.25;;;22.90;37.40;;;;;;5012611;28;20056;-67
2023/06/13 06:13:59;;;;;;;4.25;3.50;;;23.00;37.80;;;;;;5013083;28;20099;-67
2023/06/13 06:16:25;;;;;;;6.05;3.85;;;23.10;37.60;;;;;;5024747;28;20429;-67
2023/06/13 06:18:53;;;;;;;7.18;4.00;;;23.10;37.60;;;;;;5014889;28;20046;-65
2023/06/13 06:21:19;;;;;;;5.32;4.13;;;23.20;37.30;;;;;;5013379;28;20049;-66
2023/06/13 06:23:45;;;;;;;5.03;4.05;;;23.20;37.10;;;;;;5011977;28;20645;-66
2023/06/13 06:26:11;;;;;;;8.02;4.63;;;23.10;36.40;;;;;;5013203;28;20060;-66
2023/06/13 06:28:37;;;;;;;7.55;3.17;;;23.00;36.60;;;;;;5012222;28;20034;-66
2023/06/13 06:31:05;;;;;;;6.57;3.85;;;23.00;37.30;;;;;;5012300;28;20100;-66
2023/06/13 06:33:31;;;;;;;5.07;4.07;;;23.10;37.60;;;;;;5013615;28;20501;-66
2023/06/13 06:35:56;;;;;;;7.30;3.83;;;23.10;37.20;;;;;;5012292;28;20045;-66
2023/06/13 06:38:22;;;;;;;5.75;3.95;;;23.30;37.60;;;;;;5014326;28;20053;-66
2023/06/13 06:40:48;;;;;;;5.43;3.72;;;23.40;36.80;;;;;;5013320;28;20121;-66
2023/06/13 06:43:14;;;;;;;6.70;3.63;;;23.40;37.00;;;;;;5013609;28;20109;-66
2023/06/13 06:45:40;;;;;;;5.68;3.88;;;23.50;37.60;;;;;;5012288;28;20089;-66
2023/06/13 06:48:06;;;;;;;7.00;3.92;;;23.80;36.90;;;;;;4995619;28;20493;-67
2023/06/13 06:50:31;;;;;;;10.88;4.10;;;23.90;36.20;;;;;;5013389;28;20121;-66
2023/06/13 06:52:57;;;;;;;6.72;4.43;;;24.00;36.10;;;;;;5011865;28;20041;-66
2023/06/13 06:55:23;;;;;;;6.10;3.70;;;24.10;35.40;;;;;;5012988;28;20057;-66
2023/06/13 06:57:49;;;;;;;6.40;3.75;;;24.20;35.60;;;;;;5012125;28;20050;-67
2023/06/13 07:00:15;;;;;;;6.45;3.70;;;24.30;35.40;;;;;;5011617;28;20468;-66
2023/06/13 07:02:41;;;;;;;5.70;3.85;;;24.30;35.20;;;;;;5011838;28;20088;-66
2023/06/13 07:05:08;;;;;;;6.32;3.97;;;24.20;35.40;;;;;;5013057;28;20503;-66
2023/06/13 07:07:35;;;;;;;6.38;3.78;;;24.10;35.50;;;;;;5011735;28;20041;-66
2023/06/13 07:10:01;;;;;;;6.13;4.18;;;24.10;35.40;;;;;;5014068;28;20125;-66
2023/06/13 07:12:26;;;;;;;7.13;4.30;;;24.10;35.60;;;;;;4995214;28;20042;-67
2023/06/13 07:14:52;;;;;;;7.75;4.32;;;24.10;35.70;;;;;;5011896;28;20064;-66
2023/06/13 07:17:18;;;;;;;6.85;3.58;;;24.20;35.60;;;;;;5012890;28;20404;-66
2023/06/13 07:19:44;;;;;;;6.03;3.72;;;24.30;35.90;;;;;;4994417;28;20073;-66
2023/06/13 07:22:10;;;;;;;5.70;3.92;;;24.40;35.90;;;;;;5012841;28;20077;-66
2023/06/13 07:24:36;;;;;;;7.53;4.25;;;24.50;36.00;;;;;;5011487;28;20049;-65
2023/06/13 07:27:02;;;;;;;7.30;4.15;;;24.70;35.70;;;;;;5011529;28;20049;-66
2023/06/13 07:29:27;;;;;;;8.35;4.05;;;24.80;35.60;;;;;;5014351;28;20052;-66
2023/06/13 07:31:53;;;;;;;7.20;4.00;;;24.90;35.20;;;;;;5031514;28;20393;-67
2023/06/13 07:34:19;;;;;;;6.38;3.65;;;24.90;35.30;;;;;;5031551;28;20041;-66
2023/06/13 07:36:44;;;;;;;7.38;4.93;;;25.00;35.60;;;;;;5031435;28;20397;-67
2023/06/13 07:39:12;;;;;;;6.05;3.97;;;25.10;35.30;;;;;;5047452;28;20523;-66
2023/06/13 07:41:38;;;;;;;7.53;4.68;;;25.20;35.10;;;;;;5031141;28;20077;-66
2023/06/13 07:44:05;;;;;;;5.63;4.40;;;25.10;35.00;;;;;;5032514;28;20038;-66
2023/06/13 07:46:31;;;;;;;6.20;4.40;;;25.10;34.70;;;;;;5045778;28;20034;-67
2023/06/13 07:48:57;;;;;;;14.57;4.72;;;25.10;35.20;;;;;;5030806;28;20045;-66
2023/06/13 07:51:24;;;;;;;12.48;4.60;;;25.10;35.40;;;;;;5032365;28;20046;-67
2023/06/13 07:53:50;;;;;;;6.10;4.13;;;25.10;34.90;;;;;;5014954;28;20037;-67
2023/06/13 07:56:16;;;;;;;8.15;4.25;;;25.10;34.90;;;;;;5032254;28;20045;-66
2023/06/13 07:58:41;;;;;;;5.55;3.88;;;25.10;34.90;;;;;;5031206;28;20132;-66
2023/06/13 08:01:07;;;;;;;6.32;4.22;;;25.10;34.90;;;;;;5029681;28;20556;-66
2023/06/13 08:03:34;;;;;;;5.72;3.92;;;25.10;34.90;;;;;;5031015;28;20500;-67
2023/06/13 08:06:00;;;;;;;7.30;4.78;;;25.10;35.20;;;;;;5031027;28;20473;-66
2023/06/13 08:08:26;;;;;;;8.90;4.40;;;25.20;35.60;;;;;;5032296;28;20033;-66
2023/06/13 08:10:52;;;;;;;5.45;4.53;;;25.40;35.10;;;;;;5032289;28;20334;-67
2023/06/13 08:13:18;;;;;;;8.00;4.20;;;25.40;34.90;;;;;;5030991;28;20037;-67
2023/06/13 08:15:44;;;;;;;6.00;3.85;;;25.40;34.70;;;;;;5031922;28;20573;-67
2023/06/13 08:18:10;;;;;;;7.22;4.00;;;25.40;34.90;;;;;;5041780;28;20113;-67
2023/06/13 08:20:37;;;;;;;7.25;4.25;;;25.40;34.80;;;;;;5012352;28;20049;-67
2023/06/13 08:23:03;;;;;;;5.80;3.70;;;25.50;34.30;;;;;;4994706;28;20042;-67
2023/06/13 08:25:29;;;;;;;5.43;3.72;;;25.60;33.80;;;;;;5012344;28;20107;-67
2023/06/13 08:27:55;;;;;;;4.97;3.10;;;25.70;33.80;;;;;;5012443;28;20030;-67
2023/06/13 08:30:21;;;;;;;8.10;4.07;;;25.70;33.70;;;;;;5012816;28;20207;-67
2023/06/13 08:32:48;;;;;;;8.02;3.85;;;25.80;33.70;;;;;;5015458;28;20042;-67
2023/06/13 08:35:13;;;;;;;6.38;3.45;;;25.90;33.50;;;;;;5015843;28;20042;-67
2023/06/13 08:37:39;;;;;;;4.82;3.30;;;25.90;33.70;;;;;;4997892;28;20058;-67
2023/06/13 08:40:09;;;;;;;6.55;3.80;;;25.90;33.30;;;;;;5014457;28;20057;-67
2023/06/13 08:42:39;;;;;;;6.65;3.22;;;25.80;33.20;;;;;;5014438;28;20081;-67
2023/06/13 08:45:09;;;;;;;6.85;3.50;;;25.70;33.20;;;;;;5014351;28;20120;-67
2023/06/13 08:47:35;;;;;;;5.97;3.40;;;25.70;32.80;;;;;;5015339;28;20414;-67
2023/06/13 08:50:02;;;;;;;5.38;3.10;;;25.60;33.10;;;;;;5015571;28;20104;-67
2023/06/13 08:52:37;;;;;;;5.28;3.20;;;25.70;33.60;;;;;;5026948;28;20102;-67
2023/06/13 08:55:07;;;;;;;7.10;3.67;;;25.70;33.90;;;;;;5033997;28;20049;-67
2023/06/13 08:57:33;;;;;;;4.25;3.33;;;25.80;33.90;;;;;;5033948;28;20046;-67
2023/06/13 09:00:00;;;;;;;5.88;3.60;;;26.00;34.20;;;;;;5033682;28;20084;-71
2023/06/13 09:02:26;;;;;;;5.57;3.20;;;26.10;33.00;;;;;;5034905;28;20531;-71
2023/06/13 09:04:52;;;;;;;4.72;3.08;;;26.10;33.30;;;;;;5016332;28;20042;-72
2023/06/13 09:07:21;;;;;;;6.80;2.97;;;26.20;33.00;;;;;;5014258;28;20042;-72
2023/06/13 09:09:48;;;;;;;7.75;3.13;;;26.30;32.80;;;;;;5013877;28;20048;-71
2023/06/13 09:12:16;;;;;;;6.07;3.20;;;26.30;32.70;;;;;;5015211;28;20041;-71
2023/06/13 09:14:43;;;;;;;5.65;3.20;;;26.40;32.50;;;;;;5013827;28;20054;-72
2023/06/13 09:17:09;;;;;;;9.25;3.45;;;26.60;33.00;;;;;;5013805;28;20041;-71
2023/06/13 09:19:35;;;;;;;7.00;3.30;;;26.80;33.20;;;;;;5025941;28;20060;-71
2023/06/13 09:22:01;;;;;;;7.05;3.08;;;26.90;33.00;;;;;;5018560;28;20482;-71
2023/06/13 09:24:27;;;;;;;5.63;3.42;;;27.10;32.70;;;;;;5013935;28;20167;-71
2023/06/13 09:26:53;;;;;;;5.55;2.65;;;27.20;32.60;;;;;;5014876;28;20038;-71
2023/06/13 09:29:19;;;;;;;6.38;3.40;;;27.40;32.50;;;;;;5014714;28;20041;-71
2023/06/13 09:31:45;;;;;;;4.63;2.95;;;27.50;32.10;;;;;;5013472;28;20583;-71
2023/06/13 09:34:16;;;;;;;9.05;3.40;;;27.60;32.40;;;;;;5014324;28;20060;-71
2023/06/13 09:36:43;;;;;;;7.57;2.92;;;27.80;32.10;;;;;;5013207;28;20045;-72
2023/06/13 09:39:10;;;;;;;4.10;2.88;;;27.90;31.30;;;;;;5013022;28;20108;-72
2023/06/13 09:41:36;;;;;;;3.85;2.97;;;27.90;31.60;;;;;;5012301;28;20104;-71
2023/06/13 09:44:04;;;;;;;4.07;3.42;;;27.90;31.20;;;;;;5006635;28;20046;-72
2023/06/13 09:46:34;;;;;;;3.97;3.28;;;28.00;31.40;;;;;;5007257;28;20125;-71
2023/06/13 09:49:00;;;;;;;7.38;3.30;;;28.00;31.40;;;;;;4991630;28;20393;-72
2023/06/13 09:51:29;;;;;;;3.78;2.95;;;28.10;31.10;;;;;;5009835;28;20397;-72
2023/06/13 09:53:55;;;;;;;6.50;3.17;;;28.20;30.60;;;;;;5008956;28;20052;-72
2023/06/13 09:56:22;;;;;;;4.78;3.10;;;28.20;30.90;;;;;;5007718;28;20048;-71
2023/06/13 09:58:49;;;;;;;4.05;3.03;;;28.20;30.60;;;;;;5008701;28;20481;-71
2023/06/13 10:01:17;;;;;;;6.47;3.10;;;28.20;30.40;;;;;;5013076;28;20061;-72
2023/06/13 10:03:43;;;;;;;5.65;3.10;;;28.30;30.40;;;;;;5018378;28;20564;-71
2023/06/13 10:06:09;;;;;;;3.70;3.17;;;28.30;30.30;;;;;;5032198;28;20083;-71
2023/06/13 10:08:35;;;;;;;4.28;3.20;;;28.40;30.70;;;;;;5026314;28;20073;-71
2023/06/13 10:11:14;;;;;;;4.20;2.55;;;28.60;30.10;;;;;;5013792;28;20099;-71
2023/06/13 10:13:48;;;;;;;4.97;2.92;;;28.70;30.40;;;;;;5021318;28;20046;-71
2023/06/13 10:16:14;;;;;;;5.72;2.92;;;28.90;30.20;;;;;;5028808;28;20108;-71
2023/06/13 10:18:44;;;;;;;5.55;3.28;;;29.00;30.30;;;;;;5030432;28;20056;-71
2023/06/13 10:21:13;;;;;;;4.53;3.20;;;29.00;29.80;;;;;;5015008;28;20037;-72
2023/06/13 10:23:48;;;;;;;7.55;3.00;;;29.10;30.00;;;;;;5013900;28;20041;-72
2023/06/13 10:26:33;;;;;;;5.13;2.97;;;29.20;29.90;;;;;;5015214;28;20053;-71
2023/06/13 10:29:20;;;;;;;5.38;2.95;;;29.30;30.10;;;;;;5032055;28;20045;-71
2023/06/13 10:32:02;;;;;;;5.90;3.10;;;29.40;30.00;;;;;;5016769;28;20041;-71
2023/06/13 10:35:16;;;;;;;5.82;2.80;;;29.50;29.70;;;;;;5012328;28;20050;-67
2023/06/13 10:38:14;;;;;;;5.45;2.70;;;29.60;29.40;;;;;;5025335;28;20053;-67
2023/06/13 10:40:48;;;;;;;4.55;3.13;;;29.70;29.40;;;;;;5012008;28;20046;-67
2023/06/13 10:43:24;;;;;;;3.60;3.08;;;29.70;29.40;;;;;;5003014;28;20034;-67
2023/06/13 10:45:53;;;;;;;4.75;3.30;;;29.70;29.60;;;;;;4993768;28;20046;-67
2023/06/13 10:48:34;;;;;;;4.65;3.03;;;29.80;30.00;;;;;;5003587;28;20076;-66
2023/06/13 10:50:59;;;;;;;4.05;2.88;;;29.70;29.00;;;;;;5006456;28;20034;-67
2023/06/13 10:53:30;;;;;;;7.07;3.33;;;29.50;29.10;;;;;;5006787;28;20443;-66
2023/06/13 10:56:03;;;;;;;6.00;3.08;;;29.30;28.90;;;;;;5007771;28;20041;-66
2023/06/13 10:58:29;;;;;;;;;;;29.30;29.30;;;;;;5023344;28;20058;-66
2023/06/13 11:00:55;;;;;;;5.47;3.53;;;29.10;29.80;;;;;;5006108;28;19925;-66
2023/06/13 11:03:29;;;;;;;6.25;3.25;;;29.10;29.50;;;;;;5007484;28;20038;-66
2023/06/13 11:05:55;;;;;;;7.22;3.50;;;29.20;29.00;;;;;;5022425;28;20184;-67
2023/06/13 11:08:22;;;;;;;4.07;2.63;;;29.10;29.30;;;;;;5007493;28;20140;-66
2023/06/13 11:10:50;;;;;;;6.60;3.35;;;29.20;29.90;;;;;;5005794;28;20095;-67
2023/06/13 11:13:23;;;;;;;4.40;3.13;;;29.30;29.60;;;;;;5006689;28;20045;-66
2023/06/13 11:15:53;;;;;;;4.50;3.28;;;29.40;28.90;;;;;;5005558;28;20038;-67
2023/06/13 11:18:18;;;;;;;5.47;3.47;;;29.40;29.20;;;;;;5005548;28;20034;-67
2023/06/13 11:20:49;;;;;;;5.82;3.63;;;29.40;29.60;;;;;;5004303;28;20076;-66
2023/06/13 11:23:49;;;;;;;3.58;3.20;;;29.50;29.40;;;;;;5007245;28;20045;-66
2023/06/13 11:26:20;;;;;;;5.60;3.75;;;29.50;29.50;;;;;;5018777;28;20050;-66
2023/06/13 11:28:48;;;;;;;5.50;3.50;;;29.40;29.40;;;;;;5004920;28;20085;-66
2023/06/13 11:31:16;;;;;;;5.38;3.15;;;29.40;28.90;;;;;;5005262;28;20045;-67
2023/06/13 11:33:46;;;;;;;5.45;3.15;;;29.30;28.80;;;;;;4990864;28;20528;-67
2023/06/13 11:36:16;;;;;;;4.45;3.40;;;29.20;28.70;;;;;;5006079;28;20318;-66
2023/06/13 11:38:59;;;;;;;6.18;3.42;;;29.20;28.70;;;;;;5006954;28;20053;-67
2023/06/13 11:41:27;;;;;;;4.45;3.40;;;29.10;29.30;;;;;;5021910;28;20112;-66
2023/06/13 11:43:55;;;;;;;4.00;3.28;;;29.10;29.00;;;;;;5007833;28;20077;-71
2023/06/13 11:46:21;;;;;;;5.82;3.70;;;29.30;29.10;;;;;;5006407;28;20065;-71
2023/06/13 11:48:52;;;;;;;4.60;3.95;;;29.30;29.20;;;;;;4989356;28;20084;-72
2023/06/13 11:51:18;;;;;;;5.32;3.28;;;29.30;29.30;;;;;;5006487;28;20143;-71
2023/06/13 11:54:06;;;;;;;4.72;3.28;;;29.40;29.20;;;;;;5005407;28;20042;-70
2023/06/13 11:56:36;;;;;;;4.10;3.10;;;29.40;29.50;;;;;;5008337;28;20164;-71
2023/06/13 11:59:16;;;;;;;6.78;3.00;;;29.50;29.50;;;;;;5006054;28;20073;-71
2023/06/13 12:01:43;;;;;;;5.05;3.05;;;29.60;29.70;;;;;;5005576;28;20682;-71
2023/06/13 12:04:13;;;;;;;5.30;3.42;;;29.70;29.50;;;;;;5005709;28;20121;-71
2023/06/13 12:06:40;;;;;;;5.47;3.15;;;29.80;29.00;;;;;;5010789;28;20045;-71
2023/06/13 12:09:06;;;;;;;4.18;3.13;;;29.90;29.30;;;;;;5010401;28;20552;-71
2023/06/13 12:11:32;;;;;;;4.60;3.03;;;29.90;29.10;;;;;;5011646;28;20037;-71
2023/06/13 12:14:00;;;;;;;6.65;3.38;;;30.00;29.20;;;;;;5009721;28;20056;-72
2023/06/13 12:16:29;;;;;;;4.25;2.92;;;30.10;28.80;;;;;;5009153;28;20041;-71
2023/06/13 12:18:56;;;;;;;3.97;3.15;;;30.20;28.90;;;;;;5011085;28;20121;-72
2023/06/13 12:21:33;;;;;;;3.60;2.95;;;30.20;29.10;;;;;;5009576;28;20050;-71
2023/06/13 12:24:03;;;;;;;4.25;3.00;;;30.30;28.90;;;;;;5008899;28;20042;-71
2023/06/13 12:26:33;;;;;;;4.75;2.92;;;30.10;28.40;;;;;;5010842;28;20072;-71
2023/06/13 12:29:11;;;;;;;5.82;3.30;;;29.90;28.80;;;;;;5009396;28;20054;-71
2023/06/13 12:31:40;;;;;;;4.93;3.30;;;29.70;29.10;;;;;;5009379;28;20481;-71
2023/06/13 12:34:10;;;;;;;7.47;3.33;;;29.70;28.90;;;;;;5008736;28;20041;-71
2023/06/13 12:36:44;;;;;;;3.40;3.10;;;29.70;29.10;;;;;;5026354;28;20042;-71
2023/06/13 12:39:21;;;;;;;7.55;3.75;;;29.70;29.20;;;;;;5017420;28;20053;-71
2023/06/13 12:41:52;;;;;;;6.13;3.20;;;29.50;28.60;;;;;;5014099;28;20033;-71
2023/06/13 12:44:21;;;;;;;5.53;3.20;;;29.30;28.70;;;;;;5014595;28;20045;-71
2023/06/13 12:46:49;;;;;;;7.22;3.25;;;29.00;28.80;;;;;;5014472;28;20045;-71
2023/06/13 12:49:19;;;;;;;5.55;3.50;;;28.90;29.00;;;;;;4998428;28;20401;-71
2023/06/13 12:51:48;;;;;;;4.20;3.63;;;28.90;29.10;;;;;;5015626;28;20524;-72
2023/06/13 12:54:19;;;;;;;8.38;3.22;;;29.00;29.50;;;;;;5015762;28;20121;-72